Ops Hamburg — A8VS9 — position and weather

sailwx.info

Track history (hours):
 
Tides and Currents Weather Stations Pressure Air Temp Water Temp Dewpoint Dewpoint Depression Visibility Wind Speed Wind Dir Waves Ship Positions

Ops Hamburg

Last reported at 2014-Sep-24 06:10 UTC. Time now 2014-Sep-30 15:50 UTC.
Position N 35°59' W 005°15'.

Length 148 m; draft 8.7 m.

Type: Cargo ship. MMSI: 636092040.

Date/timePositionNaut miles runAvg speedWind from/ knotsBaromVisibWave heightAir tempDewpointWater temp
2014-Sep-24 06:10N 35°59' W 005°15'813.6
2014-Sep-24 05:33N 35°58' W 005°25'4 0.2
2014-Sep-23 09:31N 35°57' W 005°30'1010.1
2014-Sep-23 08:33N 35°60' W 005°19'228 5.8
2014-Sep-21 17:23N 35°43' W 000°38'0 0.0
2014-Sep-21 16:29N 35°43' W 000°38'0 0.0
2014-Sep-21 15:22N 35°43' W 000°38'0 0.0
2014-Sep-21 01:20N 35°43' W 000°38'0 0.0
2014-Sep-20 19:32N 35°43' W 000°38'0 0.0
2014-Sep-20 18:25N 35°43' W 000°38'0 0.0
2014-Sep-20 17:25N 35°43' W 000°38'0 0.0
2014-Sep-20 16:31N 35°43' W 000°38'0 0.0
2014-Sep-20 15:31N 35°43' W 000°38'0 0.0
2014-Sep-20 14:31N 35°43' W 000°38'0 0.0
2014-Sep-20 13:31N 35°43' W 000°38'0 0.0
2014-Sep-20 10:25N 35°43' W 000°38'0 0.0
2014-Sep-20 09:31N 35°43' W 000°38'0 0.0
2014-Sep-20 01:26N 35°43' W 000°38'0 0.0
2014-Sep-19 14:19N 35°43' W 000°38'0 0.0
2014-Sep-18 23:13N 35°43' W 000°38'0 0.0
2014-Sep-16 21:23N 35°43' W 000°38'0 0.0
2014-Sep-16 20:29N 35°43' W 000°38'0 0.0
2014-Sep-16 18:30N 35°43' W 000°38'0 0.0
2014-Sep-16 17:06N 35°43' W 000°38'0 0.0
2014-Sep-16 16:30N 35°43' W 000°38'0 0.0
2014-Sep-16 15:06N 35°43' W 000°38'0 0.0
2014-Sep-16 12:12N 35°43' W 000°38'0 0.0
2014-Sep-16 11:24N 35°43' W 000°38'0 0.0
2014-Sep-16 09:13N 35°43' W 000°38'0 0.0
2014-Sep-16 07:12N 35°43' W 000°38'0 0.0
2014-Sep-16 06:24N 35°43' W 000°38'1 0.6
2014-Sep-16 04:16N 35°44' W 000°37'2 2.3
2014-Sep-16 03:26N 35°45' W 000°39'0 0.5
2014-Sep-16 02:31N 35°45' W 000°38'5911.1
2014-Sep-15 21:15N 35°59' W 001°49'1112.7
2014-Sep-15 20:22N 36°01' W 002°02'15712.8
2014-Sep-15 08:05N 35°58' W 005°16'713.3
2014-Sep-15 07:32N 35°58' W 005°26'  
Track history (hours):
 
Tides and Currents Weather Stations Pressure Air Temp Water Temp Dewpoint Dewpoint Depression Visibility Wind Speed Wind Dir Waves Ship Positions

Ops Hamburg

Last reported at 2014-Sep-24 06:10 UTC. Time now 2014-Sep-30 15:50 UTC.
Position N 35°59' W 005°15'.

Length 148 m; draft 8.7 m.

Type: Cargo ship. MMSI: 636092040.

Date/timePositionNaut miles runAvg speedWind from/ knotsBaromVisibWave heightAir tempDewpointWater temp
2014-Sep-24 06:10N 35°59' W 005°15'813.6
2014-Sep-24 05:33N 35°58' W 005°25'4 0.2
2014-Sep-23 09:31N 35°57' W 005°30'1010.1
2014-Sep-23 08:33N 35°60' W 005°19'228 5.8
2014-Sep-21 17:23N 35°43' W 000°38'0 0.0
2014-Sep-21 16:29N 35°43' W 000°38'0 0.0
2014-Sep-21 15:22N 35°43' W 000°38'0 0.0
2014-Sep-21 01:20N 35°43' W 000°38'0 0.0
2014-Sep-20 19:32N 35°43' W 000°38'0 0.0
2014-Sep-20 18:25N 35°43' W 000°38'0 0.0
2014-Sep-20 17:25N 35°43' W 000°38'0 0.0
2014-Sep-20 16:31N 35°43' W 000°38'0 0.0
2014-Sep-20 15:31N 35°43' W 000°38'0 0.0
2014-Sep-20 14:31N 35°43' W 000°38'0 0.0
2014-Sep-20 13:31N 35°43' W 000°38'0 0.0
2014-Sep-20 10:25N 35°43' W 000°38'0 0.0
2014-Sep-20 09:31N 35°43' W 000°38'0 0.0
2014-Sep-20 01:26N 35°43' W 000°38'0 0.0
2014-Sep-19 14:19N 35°43' W 000°38'0 0.0
2014-Sep-18 23:13N 35°43' W 000°38'0 0.0
2014-Sep-16 21:23N 35°43' W 000°38'0 0.0
2014-Sep-16 20:29N 35°43' W 000°38'0 0.0
2014-Sep-16 18:30N 35°43' W 000°38'0 0.0
2014-Sep-16 17:06N 35°43' W 000°38'0 0.0
2014-Sep-16 16:30N 35°43' W 000°38'0 0.0
2014-Sep-16 15:06N 35°43' W 000°38'0 0.0
2014-Sep-16 12:12N 35°43' W 000°38'0 0.0
2014-Sep-16 11:24N 35°43' W 000°38'0 0.0
2014-Sep-16 09:13N 35°43' W 000°38'0 0.0
2014-Sep-16 07:12N 35°43' W 000°38'0 0.0
2014-Sep-16 06:24N 35°43' W 000°38'1 0.6
2014-Sep-16 04:16N 35°44' W 000°37'2 2.3
2014-Sep-16 03:26N 35°45' W 000°39'0 0.5
2014-Sep-16 02:31N 35°45' W 000°38'5911.1
2014-Sep-15 21:15N 35°59' W 001°49'1112.7
2014-Sep-15 20:22N 36°01' W 002°02'15712.8
2014-Sep-15 08:05N 35°58' W 005°16'713.3
2014-Sep-15 07:32N 35°58' W 005°26'  

Dump ship's entire track history